createdAt,value
2018-11-05T00:00:50.228Z,84.56
2018-11-05T00:03:25.939Z,83.71
2018-11-05T00:06:01.505Z,84.43
2018-11-05T00:08:37.056Z,86.06
2018-11-05T00:11:12.839Z,85.72
2018-11-05T00:13:48.615Z,84.82
2018-11-05T00:16:24.337Z,85.64
2018-11-05T00:19:00.093Z,86.64
2018-11-05T00:21:35.924Z,86.02
2018-11-05T00:24:11.535Z,85.50
2018-11-05T00:26:47.191Z,86.18
2018-11-05T00:29:22.923Z,86.06
2018-11-05T00:31:58.604Z,85.54
2018-11-05T00:34:34.270Z,86.11
2018-11-05T00:37:10.177Z,86.41
2018-11-05T00:39:45.933Z,86.10
2018-11-05T00:42:27.930Z,86.09
2018-11-05T00:45:04.003Z,85.50
2018-11-05T00:47:39.773Z,85.71
2018-11-05T00:50:17.072Z,85.66
2018-11-05T00:52:54.436Z,85.77
2018-11-05T00:55:34.081Z,85.64
2018-11-05T00:58:09.607Z,86.57
2018-11-05T01:00:45.060Z,88.03
2018-11-05T01:03:20.789Z,86.84
2018-11-05T01:05:56.535Z,87.54
2018-11-05T01:08:32.054Z,88.89
2018-11-05T01:11:07.588Z,90.87
2018-11-05T01:13:43.068Z,90.35
2018-11-05T01:16:18.636Z,89.52
2018-11-05T01:18:54.337Z,89.44
2018-11-05T01:21:29.794Z,89.41
2018-11-05T01:24:05.844Z,88.27
2018-11-05T01:26:43.380Z,88.49
2018-11-05T01:29:18.904Z,86.82
2018-11-05T01:31:54.677Z,86.90
2018-11-05T01:34:30.457Z,87.72
2018-11-05T01:37:06.709Z,88.27
2018-11-05T01:39:42.580Z,90.02
2018-11-05T01:42:18.172Z,89.69
2018-11-05T01:44:53.595Z,89.30
2018-11-05T01:47:29.521Z,89.33
2018-11-05T01:50:06.238Z,88.83
2018-11-05T01:52:42.932Z,87.92
2018-11-05T01:55:28.755Z,88.27
2018-11-05T01:58:04.812Z,89.02
2018-11-05T02:00:40.446Z,90.71
2018-11-05T02:03:15.978Z,92.16
2018-11-05T02:05:51.724Z,90.95
2018-11-05T02:08:27.280Z,89.70
2018-11-05T02:11:02.821Z,90.45
2018-11-05T02:13:38.703Z,90.64
2018-11-05T02:16:14.259Z,90.83
2018-11-05T02:18:49.938Z,90.12
2018-11-05T02:21:25.436Z,89.83
2018-11-05T02:24:00.956Z,90.59
2018-11-05T02:26:36.753Z,91.51
2018-11-05T02:29:12.485Z,92.10
2018-11-05T02:31:47.932Z,92.03
2018-11-05T02:34:23.352Z,91.69
2018-11-05T02:36:58.985Z,91.84
2018-11-05T02:39:34.565Z,91.99
2018-11-05T02:42:10.262Z,92.81
2018-11-05T02:44:45.965Z,92.68
2018-11-05T02:47:22.234Z,93.22
2018-11-05T02:49:57.798Z,93.22
2018-11-05T02:52:33.421Z,92.89
2018-11-05T02:55:09.419Z,93.73
2018-11-05T02:57:49.404Z,95.63
2018-11-05T03:00:34.637Z,96.65
2018-11-05T03:03:10.433Z,96.68
2018-11-05T03:05:46.068Z,96.79
2018-11-05T03:08:21.855Z,96.20
2018-11-05T03:10:57.546Z,95.34
2018-11-05T03:13:33.054Z,94.12
2018-11-05T03:16:08.431Z,94.98
2018-11-05T03:18:44.056Z,94.83
2018-11-05T03:21:19.564Z,95.15
2018-11-05T03:23:55.395Z,94.92
2018-11-05T03:26:31.088Z,95.70
2018-11-05T03:29:07.772Z,94.70
2018-11-05T03:31:43.498Z,93.77
2018-11-05T03:34:19.037Z,93.52
2018-11-05T03:36:54.720Z,94.19
2018-11-05T03:39:30.213Z,93.94
2018-11-05T03:42:06.373Z,94.38
2018-11-05T03:44:41.933Z,94.28
2018-11-05T03:47:17.763Z,94.32
2018-11-05T03:49:53.551Z,94.26
2018-11-05T03:52:29.304Z,93.58
2018-11-05T03:55:05.064Z,94.17
2018-11-05T03:57:40.664Z,94.09
2018-11-05T04:00:33.690Z,92.61
2018-11-05T04:03:09.107Z,93.40
2018-11-05T04:05:45.248Z,92.25
2018-11-05T04:08:20.781Z,91.97
2018-11-05T04:10:56.230Z,92.96
2018-11-05T04:13:31.892Z,92.22
2018-11-05T04:16:07.461Z,91.12
2018-11-05T04:18:43.210Z,92.62
2018-11-05T04:21:18.817Z,93.43
2018-11-05T04:23:54.458Z,94.17
2018-11-05T04:26:29.845Z,94.93
2018-11-05T04:29:05.823Z,95.16
2018-11-05T04:31:41.688Z,95.12
2018-11-05T04:34:17.341Z,94.99
2018-11-05T04:36:52.741Z,94.81
2018-11-05T04:39:28.381Z,94.93
2018-11-05T04:42:03.973Z,94.53
2018-11-05T04:44:39.552Z,94.26
2018-11-05T04:47:15.590Z,94.54
2018-11-05T04:49:51.292Z,94.27
2018-11-05T04:52:26.719Z,93.75
2018-11-05T04:55:02.430Z,93.78
2018-11-05T04:57:38.699Z,93.40
2018-11-05T05:00:27.321Z,93.71
2018-11-05T05:03:03.131Z,94.14
2018-11-05T05:05:38.718Z,94.26
2018-11-05T05:08:14.808Z,93.81
2018-11-05T05:10:50.727Z,93.73
2018-11-05T05:13:26.409Z,94.23
2018-11-05T05:16:01.939Z,94.06
2018-11-05T05:18:37.501Z,94.71
2018-11-05T05:21:13.447Z,94.25
2018-11-05T05:23:49.068Z,93.87
2018-11-05T05:26:24.929Z,94.18
2018-11-05T05:29:00.365Z,93.73
2018-11-05T05:31:35.989Z,93.58
2018-11-05T05:34:11.780Z,93.00
2018-11-05T05:36:47.305Z,92.73
2018-11-05T05:39:23.500Z,92.08
2018-11-05T05:41:58.960Z,92.41
2018-11-05T05:44:34.536Z,92.94
2018-11-05T05:47:10.365Z,92.73
2018-11-05T05:49:46.110Z,92.84
2018-11-05T05:52:21.799Z,92.58
2018-11-05T05:54:57.353Z,93.23
2018-11-05T05:57:33.030Z,93.58
2018-11-05T06:00:11.387Z,94.33
2018-11-05T06:02:52.321Z,93.63
2018-11-05T06:05:35.644Z,93.10
2018-11-05T06:08:11.072Z,91.53
2018-11-05T06:10:46.537Z,90.96
2018-11-05T06:13:22.018Z,90.71
2018-11-05T06:15:57.828Z,90.67
2018-11-05T06:18:33.546Z,90.78
2018-11-05T06:21:09.200Z,90.78
2018-11-05T06:23:45.299Z,90.40
2018-11-05T06:26:20.956Z,90.78
2018-11-05T06:28:56.589Z,91.49
2018-11-05T06:31:32.057Z,91.82
2018-11-05T06:34:07.590Z,91.89
2018-11-05T06:36:43.185Z,92.20
2018-11-05T06:39:18.695Z,92.28
2018-11-05T06:41:54.377Z,92.34
2018-11-05T06:44:30.118Z,91.50
2018-11-05T06:47:06.205Z,91.80
2018-11-05T06:49:41.803Z,92.21
2018-11-05T06:52:17.196Z,92.55
2018-11-05T06:54:52.761Z,93.06
2018-11-05T06:57:28.432Z,92.95
2018-11-05T07:00:05.250Z,93.06
2018-11-05T07:02:40.951Z,93.06
2018-11-05T07:05:26.206Z,92.66
2018-11-05T07:08:02.010Z,92.83
2018-11-05T07:10:37.612Z,92.54
2018-11-05T07:13:13.511Z,92.30
2018-11-05T07:15:49.044Z,92.20
2018-11-05T07:18:24.810Z,91.99
2018-11-05T07:21:00.561Z,91.45
2018-11-05T07:23:36.206Z,91.08
2018-11-05T07:26:11.895Z,91.24
2018-11-05T07:28:47.766Z,91.48
2018-11-05T07:31:23.513Z,92.41
2018-11-05T07:34:00.043Z,92.98
2018-11-05T07:36:35.582Z,93.24
2018-11-05T07:39:12.539Z,93.10
2018-11-05T07:41:48.064Z,92.55
2018-11-05T07:44:23.752Z,91.86
2018-11-05T07:46:59.145Z,90.51
2018-11-05T07:49:35.009Z,89.52
2018-11-05T07:52:10.828Z,89.61
2018-11-05T07:54:46.313Z,91.12
2018-11-05T07:57:21.876Z,91.82
2018-11-05T07:59:57.422Z,91.33
2018-11-05T08:02:32.999Z,91.36
2018-11-05T08:05:09.132Z,91.61
2018-11-05T08:07:46.409Z,92.08
2018-11-05T08:10:31.523Z,91.42
2018-11-05T08:13:06.932Z,92.07
2018-11-05T08:15:42.373Z,92.27
2018-11-05T08:18:17.939Z,91.88
2018-11-05T08:20:53.523Z,91.48
2018-11-05T08:23:29.165Z,91.11
2018-11-05T08:26:04.879Z,91.07
2018-11-05T08:28:40.373Z,91.31
2018-11-05T08:31:15.881Z,91.96
2018-11-05T08:33:51.652Z,92.08
2018-11-05T08:36:27.462Z,92.56
2018-11-05T08:39:03.977Z,92.78
2018-11-05T08:41:40.037Z,92.88
2018-11-05T08:44:15.659Z,91.95
2018-11-05T08:46:51.163Z,92.31
2018-11-05T08:49:27.593Z,92.91
2018-11-05T08:52:03.238Z,92.85
2018-11-05T08:54:38.929Z,92.65
2018-11-05T08:57:14.338Z,92.46
2018-11-05T08:59:49.887Z,92.70
2018-11-05T09:02:25.559Z,92.92
2018-11-05T09:05:01.148Z,92.54
2018-11-05T09:07:36.836Z,92.64
2018-11-05T09:10:12.608Z,92.15
2018-11-05T09:12:53.932Z,91.52
2018-11-05T09:15:30.663Z,91.95
2018-11-05T09:18:06.577Z,91.75
2018-11-05T09:20:42.343Z,91.64
2018-11-05T09:23:18.030Z,92.32
2018-11-05T09:25:53.826Z,92.25
2018-11-05T09:28:29.279Z,92.24
2018-11-05T09:31:04.917Z,92.73
2018-11-05T09:33:40.351Z,92.96
2018-11-05T09:36:16.227Z,92.90
2018-11-05T09:38:51.943Z,93.10
2018-11-05T09:41:27.556Z,92.65
2018-11-05T09:44:03.160Z,93.00
2018-11-05T09:46:38.645Z,92.46
2018-11-05T09:49:14.208Z,92.62
2018-11-05T09:51:49.749Z,92.97
2018-11-05T09:54:25.310Z,92.69
2018-11-05T09:57:00.849Z,93.18
2018-11-05T09:59:37.058Z,93.29
2018-11-05T10:02:12.796Z,93.49
2018-11-05T10:04:48.670Z,93.66
2018-11-05T10:07:24.240Z,93.52
2018-11-05T10:09:59.765Z,93.26
2018-11-05T10:12:35.178Z,94.28
2018-11-05T10:15:12.012Z,94.08
2018-11-05T10:17:53.436Z,93.71
2018-11-05T10:20:30.853Z,93.83
2018-11-05T10:23:06.603Z,94.04
2018-11-05T10:25:42.006Z,93.41
2018-11-05T10:28:17.706Z,93.68
2018-11-05T10:30:53.320Z,93.63
2018-11-05T10:33:29.202Z,92.94
2018-11-05T10:36:05.706Z,92.58
2018-11-05T10:38:41.215Z,92.63
2018-11-05T10:41:17.352Z,91.53
2018-11-05T10:43:52.853Z,91.06
2018-11-05T10:46:28.363Z,91.13
2018-11-05T10:49:03.845Z,91.07
2018-11-05T10:51:39.483Z,90.53
2018-11-05T10:54:15.962Z,90.70
2018-11-05T10:56:51.611Z,91.11
2018-11-05T10:59:27.505Z,91.66
2018-11-05T11:02:08.479Z,91.21
2018-11-05T11:04:44.104Z,90.96
2018-11-05T11:07:19.565Z,90.75
2018-11-05T11:09:55.056Z,90.64
2018-11-05T11:12:30.668Z,90.14
2018-11-05T11:15:07.414Z,90.42
2018-11-05T11:17:43.157Z,89.87
2018-11-05T11:20:25.888Z,89.84
2018-11-05T11:23:01.416Z,89.77
2018-11-05T11:25:44.566Z,89.56
2018-11-05T11:28:20.251Z,90.33
2018-11-05T11:30:56.062Z,90.08
2018-11-05T11:33:31.880Z,89.52
2018-11-05T11:36:07.335Z,89.34
2018-11-05T11:38:43.076Z,88.70
2018-11-05T11:41:18.705Z,88.86
2018-11-05T11:43:54.511Z,88.62
2018-11-05T11:46:30.286Z,88.70
2018-11-05T11:49:06.663Z,88.50
2018-11-05T11:51:42.150Z,89.50
2018-11-05T11:54:17.820Z,89.55
2018-11-05T11:56:53.436Z,89.07
2018-11-05T11:59:29.098Z,88.71
2018-11-05T12:02:10.281Z,88.96
2018-11-05T12:04:46.064Z,89.22
2018-11-05T12:07:21.546Z,88.82
2018-11-05T12:09:56.992Z,88.85
2018-11-05T12:12:32.625Z,88.83
2018-11-05T12:15:08.642Z,88.36
2018-11-05T12:17:50.768Z,88.49
2018-11-05T12:20:30.214Z,88.47
2018-11-05T12:23:06.141Z,87.99
2018-11-05T12:25:41.606Z,87.68
2018-11-05T12:28:17.197Z,87.92
2018-11-05T12:30:52.802Z,88.23
2018-11-05T12:33:28.375Z,88.62
2018-11-05T12:36:04.142Z,88.82
2018-11-05T12:38:39.612Z,87.88
2018-11-05T12:41:15.455Z,87.50
2018-11-05T12:43:50.987Z,87.22
2018-11-05T12:46:26.494Z,86.57
2018-11-05T12:49:01.924Z,86.11
2018-11-05T12:51:37.786Z,86.53
2018-11-05T12:54:13.290Z,85.88
2018-11-05T12:56:49.053Z,85.38
2018-11-05T12:59:24.821Z,85.22
2018-11-05T13:02:00.271Z,85.33
2018-11-05T13:04:35.798Z,84.83
2018-11-05T13:07:11.466Z,84.93
2018-11-05T13:09:47.292Z,85.25
2018-11-05T13:12:23.066Z,84.15
2018-11-05T13:14:58.515Z,84.42
2018-11-05T13:17:34.718Z,83.91
2018-11-05T13:20:22.148Z,83.35
2018-11-05T13:23:03.477Z,82.88
2018-11-05T13:25:38.918Z,83.03
2018-11-05T13:28:14.414Z,81.95
2018-11-05T13:30:50.206Z,82.20
2018-11-05T13:33:25.869Z,81.25
2018-11-05T13:36:01.406Z,81.16
2018-11-05T13:38:37.421Z,81.71
2018-11-05T13:41:13.191Z,80.92
2018-11-05T13:43:48.989Z,80.67
2018-11-05T13:46:24.869Z,80.68
2018-11-05T13:49:01.157Z,80.24
2018-11-05T13:51:36.433Z,80.21
2018-11-05T13:54:12.193Z,80.06
2018-11-05T13:56:47.701Z,80.23
2018-11-05T13:59:23.212Z,79.51
2018-11-05T14:01:58.721Z,79.66
2018-11-05T14:04:34.354Z,79.95
2018-11-05T14:07:10.030Z,80.26
2018-11-05T14:09:45.714Z,79.76
2018-11-05T14:12:21.240Z,79.82
2018-11-05T14:14:56.991Z,79.15
2018-11-05T14:17:32.480Z,78.37
2018-11-05T14:20:09.579Z,77.82
2018-11-05T14:22:53.487Z,77.99
2018-11-05T14:25:35.594Z,77.37
2018-11-05T14:28:11.662Z,77.00
2018-11-05T14:30:47.199Z,76.84
2018-11-05T14:33:22.670Z,76.17
2018-11-05T14:35:58.326Z,76.21
2018-11-05T14:38:34.368Z,76.81
2018-11-05T14:41:10.285Z,76.15
2018-11-05T14:43:45.969Z,76.12
2018-11-05T14:46:21.965Z,76.21
2018-11-05T14:48:57.383Z,75.85
2018-11-05T14:51:33.339Z,75.92
2018-11-05T14:54:09.716Z,75.45
2018-11-05T14:56:45.309Z,74.98
2018-11-05T14:59:21.012Z,75.49
2018-11-05T15:02:02.100Z,75.36
2018-11-05T15:04:37.980Z,74.97
2018-11-05T15:07:13.832Z,74.89
2018-11-05T15:09:49.210Z,74.59
2018-11-05T15:12:25.030Z,74.88
2018-11-05T15:15:00.674Z,74.90
2018-11-05T15:17:36.555Z,74.70
2018-11-05T15:22:58.188Z,74.76
2018-11-05T15:25:33.765Z,75.04
2018-11-05T15:28:09.722Z,75.27
2018-11-05T15:30:45.443Z,75.21
2018-11-05T15:33:20.982Z,75.24
2018-11-05T15:35:56.753Z,75.72
2018-11-05T15:38:32.167Z,75.09
2018-11-05T15:41:08.411Z,75.67
2018-11-05T15:43:44.083Z,75.64
2018-11-05T15:46:19.682Z,76.43
2018-11-05T15:48:55.220Z,76.07
2018-11-05T15:51:31.782Z,76.76
2018-11-05T15:54:07.628Z,76.18
2018-11-05T15:56:43.472Z,76.07
2018-11-05T15:59:19.381Z,75.39
2018-11-05T16:01:54.758Z,76.43
2018-11-05T16:04:30.636Z,76.68
2018-11-05T16:07:06.424Z,76.49
2018-11-05T16:09:41.791Z,77.02
2018-11-05T16:12:17.483Z,76.64
2018-11-05T16:14:53.317Z,76.73
2018-11-05T16:17:29.471Z,76.43
2018-11-05T16:20:06.341Z,76.54
2018-11-05T16:22:41.724Z,76.86
2018-11-05T16:25:27.222Z,76.56
2018-11-05T16:28:02.677Z,77.04
2018-11-05T16:30:38.326Z,77.33
2018-11-05T16:33:14.153Z,77.12
2018-11-05T16:35:50.015Z,76.80
2018-11-05T16:38:25.828Z,77.40
2018-11-05T16:41:01.881Z,77.51
2018-11-05T16:43:37.605Z,77.17
2018-11-05T16:46:13.136Z,77.58
2018-11-05T16:48:48.880Z,77.63
2018-11-05T16:51:24.445Z,77.15
2018-11-05T16:54:00.068Z,76.44
2018-11-05T16:56:36.265Z,76.23
2018-11-05T16:59:12.097Z,76.40
2018-11-05T17:01:48.150Z,76.74
2018-11-05T17:04:23.708Z,77.31
2018-11-05T17:06:59.249Z,77.31
2018-11-05T17:09:34.902Z,77.31
2018-11-05T17:12:10.581Z,78.04
2018-11-05T17:14:45.962Z,78.42
2018-11-05T17:17:21.441Z,78.57
2018-11-05T17:19:57.097Z,79.08
2018-11-05T17:22:32.613Z,79.52
2018-11-05T17:25:09.358Z,79.84
2018-11-05T17:27:48.649Z,80.19
2018-11-05T17:30:33.494Z,80.35
2018-11-05T17:33:09.018Z,80.80
2018-11-05T17:35:44.620Z,81.07
2018-11-05T17:38:20.076Z,81.67
2018-11-05T17:40:55.693Z,82.54
2018-11-05T17:43:31.656Z,82.75
2018-11-05T17:46:07.136Z,83.46
2018-11-05T17:48:42.637Z,82.92
2018-11-05T17:51:18.186Z,83.11
2018-11-05T17:53:53.780Z,82.97
2018-11-05T17:56:30.105Z,83.66
2018-11-05T17:59:06.537Z,84.10
2018-11-05T18:01:42.220Z,83.23
2018-11-05T18:04:18.733Z,83.48
2018-11-05T18:06:54.481Z,83.37
2018-11-05T18:09:30.179Z,83.69
2018-11-05T18:12:05.909Z,83.88
2018-11-05T18:14:41.568Z,83.28
2018-11-05T18:17:17.363Z,83.62
2018-11-05T18:19:53.123Z,83.45
2018-11-05T18:22:28.497Z,83.76
2018-11-05T18:25:04.218Z,82.99
2018-11-05T18:27:39.820Z,83.22
2018-11-05T18:30:24.569Z,82.83
2018-11-05T18:33:00.033Z,82.65
2018-11-05T18:35:35.802Z,81.87
2018-11-05T18:38:11.664Z,81.87
2018-11-05T18:40:47.288Z,81.84
2018-11-05T18:43:23.964Z,82.08
2018-11-05T18:45:59.577Z,82.23
2018-11-05T18:48:35.102Z,82.39
2018-11-05T18:51:10.577Z,82.59
2018-11-05T18:53:46.176Z,83.54
2018-11-05T18:56:21.730Z,83.27
2018-11-05T18:58:57.946Z,84.04
2018-11-05T19:01:35.904Z,83.75
2018-11-05T19:04:11.597Z,83.79
2018-11-05T19:06:47.453Z,84.06
2018-11-05T19:09:23.094Z,84.04
2018-11-05T19:11:58.822Z,84.39
2018-11-05T19:14:34.391Z,84.37
2018-11-05T19:17:09.766Z,84.77
2018-11-05T19:19:45.154Z,84.82
2018-11-05T19:22:21.289Z,84.69
2018-11-05T19:24:57.775Z,84.61
2018-11-05T19:27:33.295Z,84.57
2018-11-05T19:30:14.277Z,84.84
2018-11-05T19:32:58.497Z,83.99
2018-11-05T19:35:35.264Z,84.43
2018-11-05T19:38:10.877Z,84.00
2018-11-05T19:40:46.634Z,84.09
2018-11-05T19:43:22.390Z,84.17
2018-11-05T19:45:58.102Z,84.08
2018-11-05T19:48:34.383Z,83.84
2018-11-05T19:51:12.451Z,83.50
2018-11-05T19:53:48.027Z,83.44
2018-11-05T19:56:24.672Z,83.47
2018-11-05T19:59:00.572Z,83.53
2018-11-05T20:01:37.350Z,83.35
2018-11-05T20:04:13.315Z,83.52
2018-11-05T20:06:49.609Z,83.47
2018-11-05T20:09:25.553Z,83.76
2018-11-05T20:12:01.504Z,84.07
2018-11-05T20:14:37.105Z,84.04
2018-11-05T20:17:12.521Z,83.79
2018-11-05T20:19:47.986Z,83.89
2018-11-05T20:22:23.806Z,84.08
2018-11-05T20:24:59.913Z,84.18
2018-11-05T20:27:35.753Z,83.82
2018-11-05T20:33:00.802Z,84.13
2018-11-05T20:35:41.076Z,83.62
2018-11-05T20:38:17.114Z,83.71
2018-11-05T20:40:52.838Z,83.72
2018-11-05T20:43:28.891Z,84.02
2018-11-05T20:46:05.623Z,84.42
2018-11-05T20:48:41.669Z,84.43
2018-11-05T20:51:17.362Z,84.11
2018-11-05T20:53:53.129Z,83.26
2018-11-05T20:56:28.903Z,83.41
2018-11-05T20:59:04.818Z,83.93
2018-11-05T21:01:40.426Z,83.97
2018-11-05T21:04:16.404Z,83.72
2018-11-05T21:06:53.514Z,83.31
2018-11-05T21:09:29.305Z,83.41
2018-11-05T21:12:05.863Z,82.93
2018-11-05T21:14:42.224Z,82.96
2018-11-05T21:17:17.901Z,83.78
2018-11-05T21:19:53.428Z,83.38
2018-11-05T21:22:29.085Z,83.24
2018-11-05T21:25:05.340Z,82.93
2018-11-05T21:27:41.585Z,82.35
2018-11-05T21:30:32.113Z,83.25
2018-11-05T21:33:07.650Z,82.72
2018-11-05T21:35:50.183Z,83.32
2018-11-05T21:38:25.762Z,82.70
2018-11-05T21:41:01.504Z,82.12
2018-11-05T21:43:37.313Z,82.22
2018-11-05T21:46:13.157Z,82.96
2018-11-05T21:48:48.640Z,83.16
2018-11-05T21:51:24.053Z,83.46
2018-11-05T21:54:00.157Z,84.52
2018-11-05T21:56:36.184Z,83.99
2018-11-05T21:59:11.756Z,83.99
2018-11-05T22:01:47.521Z,84.43
2018-11-05T22:04:23.110Z,85.07
2018-11-05T22:06:58.486Z,84.47
2018-11-05T22:09:34.144Z,84.84
2018-11-05T22:12:09.938Z,84.54
2018-11-05T22:14:45.373Z,84.49
2018-11-05T22:17:21.055Z,84.09
2018-11-05T22:19:56.890Z,84.50
2018-11-05T22:22:33.918Z,83.47
2018-11-05T22:25:10.751Z,83.42
2018-11-05T22:27:46.867Z,83.04
2018-11-05T22:30:22.839Z,82.94
2018-11-05T22:32:58.661Z,83.01
2018-11-05T22:35:34.398Z,82.79
2018-11-05T22:38:10.123Z,83.48
2018-11-05T22:40:46.238Z,84.04
2018-11-05T22:43:21.822Z,83.84
2018-11-05T22:45:57.935Z,83.97
2018-11-05T22:48:33.871Z,83.66
2018-11-05T22:51:09.438Z,83.65
2018-11-05T22:53:45.893Z,83.62
2018-11-05T22:56:22.141Z,83.91
2018-11-05T22:58:57.696Z,83.82
2018-11-05T23:01:38.612Z,83.80
2018-11-05T23:04:14.381Z,83.72
2018-11-05T23:06:51.271Z,83.96
2018-11-05T23:09:26.835Z,84.38
2018-11-05T23:12:02.401Z,84.99
2018-11-05T23:14:38.044Z,84.87
2018-11-05T23:17:13.825Z,85.25
2018-11-05T23:19:49.317Z,84.96
2018-11-05T23:22:24.940Z,85.39
2018-11-05T23:25:00.524Z,85.92
2018-11-05T23:27:40.117Z,86.35
2018-11-05T23:30:31.887Z,87.23
2018-11-05T23:33:07.272Z,87.45
2018-11-05T23:35:42.749Z,87.60
2018-11-05T23:38:18.317Z,87.17
2018-11-05T23:40:53.881Z,87.55
2018-11-05T23:43:29.328Z,87.49
2018-11-05T23:46:04.898Z,86.58
2018-11-05T23:48:40.282Z,87.36
2018-11-05T23:51:15.884Z,86.81
2018-11-05T23:53:51.676Z,87.49
2018-11-05T23:56:27.420Z,87.54
2018-11-05T23:59:03.261Z,87.67
